Detall de PIREP

Printer-friendly versionPDF version

[2012/08/02 08:01:00]
Flight IATA:CT1005
Pilot Number:037
Company ICAO:CAT
Aircraft Type:B752/E
PAX:84
Aircraft Registration:PAX
Departing Airport: EGGP
Destination Airport: LOWS
Alternate Airport:LOWW
Online: VATSIM
Route:NANTI L10 HON/N0444F290 UL186 BIG UL9 KONAN UL607 XEBIX UN871 BADVI L725 UNKEN T701 SBG DCT
Flight Level:F240
No Slew and time accel
No pause
Crash detect
Detect pilot in Cockpit between each 30 and 45 minutes
08:01 Zero fuel Weight: 158191 Lbs, Fuel Weight: 28569 Lbs
08:01 VATSIM:EGGP 020720Z 19006KT 150V210 9999 FEW030 16/13 Q1007
08:01 VATSIM:LOWS 020720Z 14005KT 9999 FEW070 BKN300 24/15 Q1016 NOSIG
08:11 Parking Brakes off
08:16 Take-off
08:16 Take off Weight: 185758 Lbs
08:16 Wind: 192º @ 006 Knots Heading: 266º
08:16 POS N53º 19´ 59´´ W002º 51´ 22´´
08:16 Gear Up: 187 Knots
08:16 Flaps:2 at 188 Knots
08:16 Flaps:1 at 216 Knots
08:17 Flaps:0 at 223 Knots
08:27 TOC
08:27 Fuel Weight: 24485 Lb
08:31 Wind:209º@028 Knots Heading: 136º Ground Speed: 459 Knots Altitude 23874 ft
08:46 Wind:230º@051 Knots Heading: 106º Ground Speed: 497 Knots Altitude 23940 ft
09:01 Wind:237º@037 Knots Heading: 110º Ground Speed: 489 Knots Altitude 24002 ft
09:16 Wind:240º@039 Knots Heading: 105º Ground Speed: 498 Knots Altitude 24022 ft
09:31 Wind:250º@024 Knots Heading: 158º Ground Speed: 474 Knots Altitude 24078 ft
09:46 Wind:272º@015 Knots Heading: 069º Ground Speed: 451 Knots Altitude 24117 ft
09:46 TOD
09:46 Fuel Weight: 12140 Lb
10:01 Wind:259º@001 Knots Heading: 014º Ground Speed: 239 Knots Altitude 4084 ft
10:04 Flaps:1 at 200 Knots
10:05 Flaps:2 at 190 Knots
10:06 Flaps:3 at 170 Knots
10:07 Gear Down: 148 Knots
10:07 Flaps:4 at 147 Knots
10:09 Flaps:5 at 137 Knots
10:10 Flaps:6 at 134 Knots
10:11 TouchDown:Rate -184 ft/min Speed: 125 Knots
10:11 VATSIM:LOWS 020950Z VRB02KT 9999 FEW060 28/12 Q1016 NOSIG
10:11 Land
10:11 Wind:251º@001 Knots
10:11 Heading: 155º
10:11 Flight Duration: 01:55
10:11 Landing Weight: 168029 Lbs
10:11 POS N47º 47´ 31´´ E013º 00´ 17´´
10:14 Parking brakes on
10:14 Block to Block Duration: 02:03
10:14 Final Fuel: 9459 Lbls
10:14 Spent Fuel: 19109 Lbls
10:14 Flight Length: 687 NM
10:14 TOD Land Length: 117 NM

Exportar CSV

Powered by Drupal - Modified by Danger4k